Terminal Aerodrome Forecast
Issued by NWS

Home | Current Version | Previous Version | Text Only | Print | Product List | Glossary On
Versions: 1 2 3 4 5 6 7 8 9 10 11 12 13 14
000
FTUS42 TJSJ 310400 AAB
TAFJBQ
TAF AMD
TJBQ 310400Z 3104/3124 11005KT P6SM FEW025 SCT060
      TEMPO 3104/3105 VRB10KT 5SM -TSRA BKN018CB OVC050
     FM311630 04010KT P6SM VCTS SCT030CB SCT050
      AMD NOT SKED TIL 311100=

USA.gov is the U.S. government's official web portal to all federal, state and local government web resources and services.